Main page
METAR-TAF:

Airports :

Mexicali, Mexico

General Rodolfo Sánchez Taboada International Airport

latitude: 32-37-50N, longitude: 115-14-30W, elevation: 22 m

Current weather observation

The report was made 5 hours and 59 minutes ago, at 07:40 UTC
Wind 6 kt from the North/Northwest
Temperature 19°C
Humidity 34%
Pressure 1008 hPa
Visibility: 16.1 km
Clear sky

METAR: MMML 240740Z 34006KT 10SM SKC 19/03 A2976

Time: 08:39 (13:39 UTC)

Forecast

The report was made 9 hours and 53 minutes ago, at 03:46 UTC
Forecast valid from 24 at 06 UTC to 25 at 06 UTC
Wind 5 kt from the West/Northwest
Visibility: 10 km
Clear sky
From 24 at 1700 UTC
Wind 10 kt from the West/Northwest
Visibility: 10 km
Clear sky
From 25 at 0300 UTC
Wind 5 kt from the West/Northwest
Visibility: 10 km
Clear sky

TAF: MMML 240346Z 2406/2506 30005KT P6SM SKC FM241700 30010KT P6SM SKC FM250300 30005KT P6SM SKC

METAR-TAF

Weather observations and forecasts of more than 4000 airports (METAR and TAF reports).

The available stations are represented by yellow and red dots on the map.

Hover mouse over dot to see the name of the station.

Then click to see weather observations and forecasts.

To change the map : click on the green buttons with a black cross to zoom in, on the green button with a dash to zoom out, or on the green arrows for adjacent maps.


METAR-TAF: